sensor_id;sensor_type;location;lat;lon;timestamp;pressure;altitude;pressure_sealevel;temperature;humidity
53514;BME280;39768;54.148;12.174;2024-02-21T00:02:46;101624.75;;;5.41;78.88
53514;BME280;39768;54.148;12.174;2024-02-21T00:06:48;101614.78;;;6.05;76.06
53514;BME280;39768;54.148;12.174;2024-02-21T00:10:51;101601.25;;;6.60;74.70
53514;BME280;39768;54.148;12.174;2024-02-21T00:14:53;101599.03;;;6.36;74.88
53514;BME280;39768;54.148;12.174;2024-02-21T00:18:55;101587.47;;;6.34;73.83
53514;BME280;39768;54.148;12.174;2024-02-21T00:22:58;101587.72;;;6.22;75.88
53514;BME280;39768;54.148;12.174;2024-02-21T00:27:01;101570.28;;;6.45;73.24
53514;BME280;39768;54.148;12.174;2024-02-21T00:31:05;101563.72;;;5.71;77.09
53514;BME280;39768;54.148;12.174;2024-02-21T00:35:08;101555.09;;;6.03;78.59
53514;BME280;39768;54.148;12.174;2024-02-21T00:39:11;101554.44;;;5.92;79.90
53514;BME280;39768;54.148;12.174;2024-02-21T00:43:20;101546.63;;;5.79;80.86
53514;BME280;39768;54.148;12.174;2024-02-21T00:47:25;101540.47;;;5.74;81.96
53514;BME280;39768;54.148;12.174;2024-02-21T00:51:28;101537.41;;;5.46;84.14
53514;BME280;39768;54.148;12.174;2024-02-21T00:55:30;101532.38;;;6.25;79.26
53514;BME280;39768;54.148;12.174;2024-02-21T00:59:32;101522.25;;;6.41;77.10
53514;BME280;39768;54.148;12.174;2024-02-21T01:03:33;101507.47;;;6.22;78.23
53514;BME280;39768;54.148;12.174;2024-02-21T01:07:35;101507.44;;;5.80;79.64
53514;BME280;39768;54.148;12.174;2024-02-21T01:11:37;101494.13;;;6.22;77.90
53514;BME280;39768;54.148;12.174;2024-02-21T01:15:39;101488.06;;;6.13;77.94
53514;BME280;39768;54.148;12.174;2024-02-21T01:19:41;101483.31;;;5.83;81.68
53514;BME280;39768;54.148;12.174;2024-02-21T01:23:43;101471.84;;;6.21;79.42
53514;BME280;39768;54.148;12.174;2024-02-21T01:27:44;101465.34;;;6.31;79.72
53514;BME280;39768;54.148;12.174;2024-02-21T01:31:47;101457.13;;;6.42;77.45
53514;BME280;39768;54.148;12.174;2024-02-21T01:35:49;101441.19;;;6.36;79.59
53514;BME280;39768;54.148;12.174;2024-02-21T01:39:51;101433.72;;;6.50;77.69
53514;BME280;39768;54.148;12.174;2024-02-21T01:43:53;101420.47;;;6.05;81.23
53514;BME280;39768;54.148;12.174;2024-02-21T01:47:55;101422.25;;;6.05;78.29
53514;BME280;39768;54.148;12.174;2024-02-21T01:51:57;101421.06;;;6.18;79.68
53514;BME280;39768;54.148;12.174;2024-02-21T01:56:00;101413.84;;;6.62;76.26
53514;BME280;39768;54.148;12.174;2024-02-21T02:00:04;101399.09;;;6.82;76.52
53514;BME280;39768;54.148;12.174;2024-02-21T02:04:11;101396.75;;;6.69;75.16
53514;BME280;39768;54.148;12.174;2024-02-21T02:08:14;101384.94;;;5.99;80.46
53514;BME280;39768;54.148;12.174;2024-02-21T02:12:19;101386.03;;;6.30;80.11
53514;BME280;39768;54.148;12.174;2024-02-21T02:16:23;101371.56;;;5.99;81.12
53514;BME280;39768;54.148;12.174;2024-02-21T02:20:25;101362.38;;;6.12;81.80
53514;BME280;39768;54.148;12.174;2024-02-21T02:24:28;101352.66;;;6.08;80.79
53514;BME280;39768;54.148;12.174;2024-02-21T02:28:31;101348.47;;;6.35;78.18
53514;BME280;39768;54.148;12.174;2024-02-21T02:32:33;101337.28;;;6.55;77.08
53514;BME280;39768;54.148;12.174;2024-02-21T02:36:36;101338.59;;;6.74;78.85
53514;BME280;39768;54.148;12.174;2024-02-21T02:40:38;101321.47;;;6.44;79.93
53514;BME280;39768;54.148;12.174;2024-02-21T02:44:42;101314.97;;;6.18;80.28
53514;BME280;39768;54.148;12.174;2024-02-21T02:48:44;101300.75;;;5.78;82.43
53514;BME280;39768;54.148;12.174;2024-02-21T02:52:47;101305.03;;;6.25;80.16
53514;BME280;39768;54.148;12.174;2024-02-21T02:56:49;101291.50;;;6.30;81.41
53514;BME280;39768;54.148;12.174;2024-02-21T03:00:52;101289.09;;;6.90;80.37
53514;BME280;39768;54.148;12.174;2024-02-21T03:04:54;101263.66;;;6.01;83.92
53514;BME280;39768;54.148;12.174;2024-02-21T03:08:56;101249.06;;;6.16;82.42
53514;BME280;39768;54.148;12.174;2024-02-21T03:12:58;101235.72;;;6.50;80.36
53514;BME280;39768;54.148;12.174;2024-02-21T03:17:01;101232.59;;;6.68;78.90
53514;BME280;39768;54.148;12.174;2024-02-21T03:21:04;101237.66;;;6.43;78.15
53514;BME280;39768;54.148;12.174;2024-02-21T03:25:06;101243.38;;;7.29;76.75
53514;BME280;39768;54.148;12.174;2024-02-21T03:29:10;101237.91;;;6.34;77.36
53514;BME280;39768;54.148;12.174;2024-02-21T03:33:13;101223.31;;;6.81;77.32
53514;BME280;39768;54.148;12.174;2024-02-21T03:37:15;101225.63;;;7.25;74.97
53514;BME280;39768;54.148;12.174;2024-02-21T03:41:17;101222.03;;;6.62;78.62
53514;BME280;39768;54.148;12.174;2024-02-21T03:45:22;101222.31;;;6.51;80.69
53514;BME280;39768;54.148;12.174;2024-02-21T03:49:24;101220.81;;;6.74;79.44
53514;BME280;39768;54.148;12.174;2024-02-21T03:53:28;101222.78;;;6.33;80.98
53514;BME280;39768;54.148;12.174;2024-02-21T03:57:30;101211.44;;;6.24;81.38
53514;BME280;39768;54.148;12.174;2024-02-21T04:01:31;101228.59;;;6.49;78.18
53514;BME280;39768;54.148;12.174;2024-02-21T04:05:34;101227.47;;;6.92;78.39
53514;BME280;39768;54.148;12.174;2024-02-21T04:09:36;101229.13;;;6.65;79.27
53514;BME280;39768;54.148;12.174;2024-02-21T04:13:38;101229.59;;;7.11;77.66
53514;BME280;39768;54.148;12.174;2024-02-21T04:17:40;101222.47;;;6.79;76.78
53514;BME280;39768;54.148;12.174;2024-02-21T04:21:45;101213.34;;;6.86;77.61
53514;BME280;39768;54.148;12.174;2024-02-21T04:25:47;101211.50;;;6.56;78.46
53514;BME280;39768;54.148;12.174;2024-02-21T04:29:49;101205.25;;;6.57;79.23
53514;BME280;39768;54.148;12.174;2024-02-21T04:33:51;101206.84;;;6.95;76.97
53514;BME280;39768;54.148;12.174;2024-02-21T04:37:52;101190.75;;;6.64;78.29
53514;BME280;39768;54.148;12.174;2024-02-21T04:41:54;101189.94;;;5.93;82.88
53514;BME280;39768;54.148;12.174;2024-02-21T04:45:56;101196.88;;;6.69;78.26
53514;BME280;39768;54.148;12.174;2024-02-21T04:49:58;101194.47;;;6.25;83.68
53514;BME280;39768;54.148;12.174;2024-02-21T04:54:00;101198.72;;;6.32;84.71
53514;BME280;39768;54.148;12.174;2024-02-21T04:58:01;101200.56;;;6.65;84.08
53514;BME280;39768;54.148;12.174;2024-02-21T05:02:04;101196.22;;;6.92;83.16
53514;BME280;39768;54.148;12.174;2024-02-21T05:06:06;101208.53;;;6.67;83.48
53514;BME280;39768;54.148;12.174;2024-02-21T05:10:09;101202.41;;;6.94;82.91
53514;BME280;39768;54.148;12.174;2024-02-21T05:14:11;101205.09;;;6.62;84.68
53514;BME280;39768;54.148;12.174;2024-02-21T05:18:13;101202.44;;;6.93;82.85
53514;BME280;39768;54.148;12.174;2024-02-21T05:22:16;101191.59;;;6.66;85.51
53514;BME280;39768;54.148;12.174;2024-02-21T05:26:22;101194.53;;;6.88;84.71
53514;BME280;39768;54.148;12.174;2024-02-21T05:30:24;101211.22;;;6.67;84.30
53514;BME280;39768;54.148;12.174;2024-02-21T05:34:26;101200.25;;;6.42;88.06
53514;BME280;39768;54.148;12.174;2024-02-21T05:38:29;101201.97;;;6.44;87.59
53514;BME280;39768;54.148;12.174;2024-02-21T05:42:31;101205.19;;;6.59;87.42
53514;BME280;39768;54.148;12.174;2024-02-21T05:46:33;101208.66;;;6.62;86.55
53514;BME280;39768;54.148;12.174;2024-02-21T05:50:35;101224.00;;;6.88;86.53
53514;BME280;39768;54.148;12.174;2024-02-21T05:54:38;101233.00;;;5.80;91.23
53514;BME280;39768;54.148;12.174;2024-02-21T05:58:41;101236.22;;;5.55;92.49
53514;BME280;39768;54.148;12.174;2024-02-21T06:02:43;101242.44;;;5.95;89.78
53514;BME280;39768;54.148;12.174;2024-02-21T06:06:44;101215.22;;;5.78;87.82
53514;BME280;39768;54.148;12.174;2024-02-21T06:10:46;101211.69;;;5.77;88.54
53514;BME280;39768;54.148;12.174;2024-02-21T06:14:50;101224.75;;;6.27;84.00
53514;BME280;39768;54.148;12.174;2024-02-21T06:18:51;101231.91;;;6.60;81.79
53514;BME280;39768;54.148;12.174;2024-02-21T06:22:53;101237.41;;;6.54;81.61
53514;BME280;39768;54.148;12.174;2024-02-21T06:26:55;101219.28;;;6.65;80.57
53514;BME280;39768;54.148;12.174;2024-02-21T06:30:57;101210.25;;;7.02;76.81
53514;BME280;39768;54.148;12.174;2024-02-21T06:34:59;101214.91;;;6.27;79.00
53514;BME280;39768;54.148;12.174;2024-02-21T06:39:04;101209.63;;;6.24;75.44
53514;BME280;39768;54.148;12.174;2024-02-21T06:43:11;101211.56;;;6.53;74.80
53514;BME280;39768;54.148;12.174;2024-02-21T06:47:12;101211.75;;;6.45;72.75
53514;BME280;39768;54.148;12.174;2024-02-21T06:51:16;101207.66;;;6.66;71.67
53514;BME280;39768;54.148;12.174;2024-02-21T06:55:18;101209.09;;;6.44;73.65
53514;BME280;39768;54.148;12.174;2024-02-21T06:59:21;101199.78;;;6.26;74.49
53514;BME280;39768;54.148;12.174;2024-02-21T07:03:23;101214.72;;;6.35;72.80
53514;BME280;39768;54.148;12.174;2024-02-21T07:07:25;101200.53;;;6.31;73.41
53514;BME280;39768;54.148;12.174;2024-02-21T07:11:27;101187.47;;;6.19;75.53
53514;BME280;39768;54.148;12.174;2024-02-21T07:15:29;101185.91;;;6.10;74.07
53514;BME280;39768;54.148;12.174;2024-02-21T07:19:33;101186.19;;;6.34;73.14
53514;BME280;39768;54.148;12.174;2024-02-21T07:23:40;101191.41;;;6.40;72.26
53514;BME280;39768;54.148;12.174;2024-02-21T07:27:44;101197.81;;;6.33;74.28
53514;BME280;39768;54.148;12.174;2024-02-21T07:31:46;101203.94;;;6.38;73.80
53514;BME280;39768;54.148;12.174;2024-02-21T07:35:50;101203.34;;;6.27;75.67
53514;BME280;39768;54.148;12.174;2024-02-21T07:39:52;101204.22;;;6.61;73.80
53514;BME280;39768;54.148;12.174;2024-02-21T07:43:54;101191.63;;;6.65;72.73
53514;BME280;39768;54.148;12.174;2024-02-21T07:47:56;101201.72;;;6.53;73.53
53514;BME280;39768;54.148;12.174;2024-02-21T07:52:00;101204.25;;;6.92;71.42
53514;BME280;39768;54.148;12.174;2024-02-21T07:56:02;101200.84;;;6.87;71.51
53514;BME280;39768;54.148;12.174;2024-02-21T08:00:05;101205.94;;;6.64;72.73
53514;BME280;39768;54.148;12.174;2024-02-21T08:04:12;101200.28;;;6.74;70.12
53514;BME280;39768;54.148;12.174;2024-02-21T08:08:14;101193.63;;;6.23;72.56
53514;BME280;39768;54.148;12.174;2024-02-21T08:12:20;101197.06;;;6.28;71.54
53514;BME280;39768;54.148;12.174;2024-02-21T08:16:23;101205.31;;;6.18;70.76
53514;BME280;39768;54.148;12.174;2024-02-21T08:20:25;101201.84;;;6.49;71.86
53514;BME280;39768;54.148;12.174;2024-02-21T08:24:27;101199.16;;;6.49;70.79
53514;BME280;39768;54.148;12.174;2024-02-21T08:28:30;101195.00;;;6.73;70.18
53514;BME280;39768;54.148;12.174;2024-02-21T08:32:34;101191.72;;;6.62;70.85
53514;BME280;39768;54.148;12.174;2024-02-21T08:36:38;101191.94;;;6.86;70.56
53514;BME280;39768;54.148;12.174;2024-02-21T08:40:40;101188.06;;;6.97;68.97
53514;BME280;39768;54.148;12.174;2024-02-21T08:44:42;101214.78;;;6.67;71.05
53514;BME280;39768;54.148;12.174;2024-02-21T08:48:45;101205.66;;;7.35;67.82
53514;BME280;39768;54.148;12.174;2024-02-21T08:52:48;101200.56;;;6.96;68.87
53514;BME280;39768;54.148;12.174;2024-02-21T08:56:57;101202.09;;;7.65;66.06
53514;BME280;39768;54.148;12.174;2024-02-21T09:00:58;101208.13;;;8.26;62.34
53514;BME280;39768;54.148;12.174;2024-02-21T09:05:00;101204.06;;;7.58;64.91
53514;BME280;39768;54.148;12.174;2024-02-21T09:09:02;101206.25;;;7.46;64.57
53514;BME280;39768;54.148;12.174;2024-02-21T09:13:04;101220.41;;;7.49;64.98
53514;BME280;39768;54.148;12.174;2024-02-21T09:17:06;101221.97;;;6.65;68.46
53514;BME280;39768;54.148;12.174;2024-02-21T09:21:09;101219.09;;;7.33;65.32
53514;BME280;39768;54.148;12.174;2024-02-21T09:25:10;101217.50;;;7.86;61.59
53514;BME280;39768;54.148;12.174;2024-02-21T09:29:15;101217.47;;;7.58;64.00
53514;BME280;39768;54.148;12.174;2024-02-21T09:33:19;101222.31;;;7.16;63.54
53514;BME280;39768;54.148;12.174;2024-02-21T09:37:32;101223.34;;;7.71;61.06
53514;BME280;39768;54.148;12.174;2024-02-21T09:41:36;101227.97;;;7.94;58.79
53514;BME280;39768;54.148;12.174;2024-02-21T09:45:45;101219.44;;;7.81;59.32
53514;BME280;39768;54.148;12.174;2024-02-21T09:49:48;101218.69;;;8.06;59.04
53514;BME280;39768;54.148;12.174;2024-02-21T09:53:51;101224.06;;;8.57;57.65
53514;BME280;39768;54.148;12.174;2024-02-21T09:58:07;101232.84;;;8.09;58.18
53514;BME280;39768;54.148;12.174;2024-02-21T10:02:10;101238.56;;;7.99;58.08
53514;BME280;39768;54.148;12.174;2024-02-21T10:06:13;101234.94;;;8.00;58.28
53514;BME280;39768;54.148;12.174;2024-02-21T10:10:15;101240.94;;;8.08;58.08
53514;BME280;39768;54.148;12.174;2024-02-21T10:14:18;101236.25;;;8.41;55.88
53514;BME280;39768;54.148;12.174;2024-02-21T10:18:20;101234.06;;;8.52;55.99
53514;BME280;39768;54.148;12.174;2024-02-21T10:22:22;101242.91;;;8.03;57.23
53514;BME280;39768;54.148;12.174;2024-02-21T10:26:26;101239.78;;;8.43;55.46
53514;BME280;39768;54.148;12.174;2024-02-21T10:30:28;101226.09;;;8.50;54.01
53514;BME280;39768;54.148;12.174;2024-02-21T10:34:29;101224.91;;;8.06;52.21
53514;BME280;39768;54.148;12.174;2024-02-21T10:38:31;101233.69;;;8.89;50.63
53514;BME280;39768;54.148;12.174;2024-02-21T10:42:36;101218.56;;;8.35;51.18
53514;BME280;39768;54.148;12.174;2024-02-21T10:46:40;101213.81;;;7.90;51.59
53514;BME280;39768;54.148;12.174;2024-02-21T10:55:10;101205.06;;;6.96;53.73
53514;BME280;39768;54.148;12.174;2024-02-21T10:59:14;101195.78;;;7.07;54.04
53514;BME280;39768;54.148;12.174;2024-02-21T11:03:16;101203.34;;;8.36;51.53
53514;BME280;39768;54.148;12.174;2024-02-21T11:07:18;101199.94;;;8.31;52.23
53514;BME280;39768;54.148;12.174;2024-02-21T11:11:23;101191.63;;;7.85;52.25
53514;BME280;39768;54.148;12.174;2024-02-21T11:15:38;101185.84;;;8.24;52.29
53514;BME280;39768;54.148;12.174;2024-02-21T11:19:40;101175.97;;;8.51;51.85
53514;BME280;39768;54.148;12.174;2024-02-21T11:23:42;101179.66;;;8.22;53.53
53514;BME280;39768;54.148;12.174;2024-02-21T11:27:45;101176.44;;;8.64;51.90
53514;BME280;39768;54.148;12.174;2024-02-21T11:31:48;101169.03;;;8.70;49.95
53514;BME280;39768;54.148;12.174;2024-02-21T11:35:51;101157.00;;;8.31;50.06
53514;BME280;39768;54.148;12.174;2024-02-21T11:39:55;101162.63;;;8.97;48.84
53514;BME280;39768;54.148;12.174;2024-02-21T11:43:58;101158.72;;;8.33;48.36
53514;BME280;39768;54.148;12.174;2024-02-21T11:48:00;101143.81;;;8.49;48.30
53514;BME280;39768;54.148;12.174;2024-02-21T11:52:05;101133.34;;;8.42;47.84
53514;BME280;39768;54.148;12.174;2024-02-21T11:56:07;101138.34;;;9.24;46.96
53514;BME280;39768;54.148;12.174;2024-02-21T12:00:13;101140.13;;;9.47;45.29
53514;BME280;39768;54.148;12.174;2024-02-21T12:04:18;101125.94;;;8.96;46.35
53514;BME280;39768;54.148;12.174;2024-02-21T12:08:21;101136.66;;;9.21;45.69
53514;BME280;39768;54.148;12.174;2024-02-21T12:12:23;101126.59;;;8.55;46.83
53514;BME280;39768;54.148;12.174;2024-02-21T12:16:24;101113.69;;;8.66;46.33
53514;BME280;39768;54.148;12.174;2024-02-21T12:20:26;101103.53;;;8.74;45.77
53514;BME280;39768;54.148;12.174;2024-02-21T12:24:28;101107.38;;;9.59;44.76
53514;BME280;39768;54.148;12.174;2024-02-21T12:28:31;101112.47;;;9.43;44.94
53514;BME280;39768;54.148;12.174;2024-02-21T12:32:32;101096.56;;;8.93;44.97
53514;BME280;39768;54.148;12.174;2024-02-21T12:36:36;101083.53;;;9.72;44.54
53514;BME280;39768;54.148;12.174;2024-02-21T12:40:42;101085.38;;;9.04;44.77
53514;BME280;39768;54.148;12.174;2024-02-21T12:44:44;101073.09;;;8.97;45.27
53514;BME280;39768;54.148;12.174;2024-02-21T12:48:46;101075.81;;;9.64;44.52
53514;BME280;39768;54.148;12.174;2024-02-21T12:52:48;101065.84;;;8.52;46.94
53514;BME280;39768;54.148;12.174;2024-02-21T12:56:51;101073.00;;;8.52;48.59
53514;BME280;39768;54.148;12.174;2024-02-21T13:00:53;101065.94;;;8.97;48.00
53514;BME280;39768;54.148;12.174;2024-02-21T13:04:56;101050.66;;;8.28;49.08
53514;BME280;39768;54.148;12.174;2024-02-21T13:08:58;101053.63;;;8.20;50.88
53514;BME280;39768;54.148;12.174;2024-02-21T13:13:01;101055.38;;;8.93;49.98
53514;BME280;39768;54.148;12.174;2024-02-21T13:17:04;101039.88;;;8.05;53.74
53514;BME280;39768;54.148;12.174;2024-02-21T13:21:06;101037.94;;;8.33;52.66
53514;BME280;39768;54.148;12.174;2024-02-21T13:25:12;101039.22;;;8.71;52.19
53514;BME280;39768;54.148;12.174;2024-02-21T13:29:17;101037.41;;;9.17;51.81
53514;BME280;39768;54.148;12.174;2024-02-21T13:33:19;101044.78;;;9.33;50.71
53514;BME280;39768;54.148;12.174;2024-02-21T13:37:21;101039.13;;;8.96;51.53
53514;BME280;39768;54.148;12.174;2024-02-21T13:41:23;101033.41;;;9.49;50.48
53514;BME280;39768;54.148;12.174;2024-02-21T13:45:25;101021.28;;;8.48;53.70
53514;BME280;39768;54.148;12.174;2024-02-21T13:49:27;101028.38;;;8.96;53.04
53514;BME280;39768;54.148;12.174;2024-02-21T13:53:30;101023.16;;;8.93;53.75
53514;BME280;39768;54.148;12.174;2024-02-21T13:57:32;101020.94;;;9.46;51.50
53514;BME280;39768;54.148;12.174;2024-02-21T14:01:35;101013.13;;;9.40;52.00
53514;BME280;39768;54.148;12.174;2024-02-21T14:05:37;100997.34;;;8.89;55.44
53514;BME280;39768;54.148;12.174;2024-02-21T14:09:43;100997.41;;;8.87;55.57
53514;BME280;39768;54.148;12.174;2024-02-21T14:13:45;100998.41;;;9.07;54.29
53514;BME280;39768;54.148;12.174;2024-02-21T14:17:47;100992.63;;;9.59;53.03
53514;BME280;39768;54.148;12.174;2024-02-21T14:21:51;100976.03;;;8.84;55.75
53514;BME280;39768;54.148;12.174;2024-02-21T14:25:57;100972.72;;;8.78;56.62
53514;BME280;39768;54.148;12.174;2024-02-21T14:29:59;100975.13;;;9.27;54.28
53514;BME280;39768;54.148;12.174;2024-02-21T14:34:02;100984.59;;;9.80;52.28
53514;BME280;39768;54.148;12.174;2024-02-21T14:38:04;100971.09;;;9.39;55.00
53514;BME280;39768;54.148;12.174;2024-02-21T14:42:07;100957.91;;;9.11;56.76
53514;BME280;39768;54.148;12.174;2024-02-21T14:46:12;100959.28;;;9.00;57.79
53514;BME280;39768;54.148;12.174;2024-02-21T14:50:15;100941.44;;;8.30;61.31
53514;BME280;39768;54.148;12.174;2024-02-21T14:54:18;100942.19;;;8.80;58.87
53514;BME280;39768;54.148;12.174;2024-02-21T14:58:21;100928.09;;;8.28;61.37
53514;BME280;39768;54.148;12.174;2024-02-21T15:02:23;100918.63;;;7.45;68.95
53514;BME280;39768;54.148;12.174;2024-02-21T15:06:25;100902.66;;;7.17;69.15
53514;BME280;39768;54.148;12.174;2024-02-21T15:10:27;100912.56;;;8.13;63.76
53514;BME280;39768;54.148;12.174;2024-02-21T15:14:30;100907.31;;;8.10;65.22
53514;BME280;39768;54.148;12.174;2024-02-21T15:18:32;100894.63;;;7.67;66.37
53514;BME280;39768;54.148;12.174;2024-02-21T15:22:35;100894.59;;;7.69;66.72
53514;BME280;39768;54.148;12.174;2024-02-21T15:26:40;100887.44;;;8.16;62.68
53514;BME280;39768;54.148;12.174;2024-02-21T15:30:42;100884.72;;;8.39;60.67
53514;BME280;39768;54.148;12.174;2024-02-21T15:34:44;100876.84;;;7.89;64.59
53514;BME280;39768;54.148;12.174;2024-02-21T15:38:47;100880.50;;;8.79;59.21
53514;BME280;39768;54.148;12.174;2024-02-21T15:42:50;100872.94;;;8.43;59.18
53514;BME280;39768;54.148;12.174;2024-02-21T15:46:52;100861.38;;;7.96;61.33
53514;BME280;39768;54.148;12.174;2024-02-21T15:50:56;100866.28;;;7.85;62.77
53514;BME280;39768;54.148;12.174;2024-02-21T15:54:59;100851.94;;;8.09;60.85
53514;BME280;39768;54.148;12.174;2024-02-21T15:59:01;100846.75;;;8.50;60.34
53514;BME280;39768;54.148;12.174;2024-02-21T16:03:03;100844.94;;;8.05;60.88
53514;BME280;39768;54.148;12.174;2024-02-21T16:07:06;100845.63;;;8.34;60.78
53514;BME280;39768;54.148;12.174;2024-02-21T16:11:13;100845.72;;;8.31;60.69
53514;BME280;39768;54.148;12.174;2024-02-21T16:15:16;100834.28;;;8.04;62.34
53514;BME280;39768;54.148;12.174;2024-02-21T16:19:18;100834.88;;;8.34;59.26
53514;BME280;39768;54.148;12.174;2024-02-21T16:23:20;100837.31;;;7.95;62.50
53514;BME280;39768;54.148;12.174;2024-02-21T16:27:22;100837.31;;;8.61;58.59
53514;BME280;39768;54.148;12.174;2024-02-21T16:31:23;100825.91;;;7.89;59.36
53514;BME280;39768;54.148;12.174;2024-02-21T16:35:27;100831.53;;;7.82;59.89
53514;BME280;39768;54.148;12.174;2024-02-21T16:39:30;100824.16;;;7.88;59.64
53514;BME280;39768;54.148;12.174;2024-02-21T16:43:32;100822.75;;;7.04;63.97
53514;BME280;39768;54.148;12.174;2024-02-21T16:47:34;100819.88;;;7.10;62.35
53514;BME280;39768;54.148;12.174;2024-02-21T16:51:38;100817.44;;;8.00;58.68
53514;BME280;39768;54.148;12.174;2024-02-21T16:55:44;100816.88;;;8.14;56.81
53514;BME280;39768;54.148;12.174;2024-02-21T16:59:46;100807.28;;;7.62;59.04
53514;BME280;39768;54.148;12.174;2024-02-21T17:03:48;100809.16;;;7.10;58.89
53514;BME280;39768;54.148;12.174;2024-02-21T17:07:51;100801.31;;;7.53;57.20
53514;BME280;39768;54.148;12.174;2024-02-21T17:11:53;100803.69;;;7.38;56.77
53514;BME280;39768;54.148;12.174;2024-02-21T17:15:58;100804.78;;;7.80;56.51
53514;BME280;39768;54.148;12.174;2024-02-21T17:20:04;100807.69;;;7.98;56.77
53514;BME280;39768;54.148;12.174;2024-02-21T17:24:07;100805.75;;;7.78;56.30
53514;BME280;39768;54.148;12.174;2024-02-21T17:28:09;100795.19;;;7.75;56.28
53514;BME280;39768;54.148;12.174;2024-02-21T17:32:11;100784.56;;;7.72;57.16
53514;BME280;39768;54.148;12.174;2024-02-21T17:36:13;100782.97;;;7.43;55.96
53514;BME280;39768;54.148;12.174;2024-02-21T17:40:15;100771.28;;;7.69;55.05
53514;BME280;39768;54.148;12.174;2024-02-21T17:44:18;100765.69;;;7.75;55.90
53514;BME280;39768;54.148;12.174;2024-02-21T17:48:20;100752.19;;;7.53;55.93
53514;BME280;39768;54.148;12.174;2024-02-21T17:52:22;100735.28;;;7.51;57.13
53514;BME280;39768;54.148;12.174;2024-02-21T17:56:24;100727.81;;;8.06;54.37
53514;BME280;39768;54.148;12.174;2024-02-21T18:00:39;100716.75;;;7.70;55.64
53514;BME280;39768;54.148;12.174;2024-02-21T18:04:45;100711.31;;;7.25;56.44
53514;BME280;39768;54.148;12.174;2024-02-21T18:08:49;100695.84;;;7.78;56.19
53514;BME280;39768;54.148;12.174;2024-02-21T18:12:53;100701.09;;;8.24;53.54
53514;BME280;39768;54.148;12.174;2024-02-21T18:16:56;100679.28;;;7.21;56.41
53514;BME280;39768;54.148;12.174;2024-02-21T18:20:58;100657.06;;;6.71;58.64
53514;BME280;39768;54.148;12.174;2024-02-21T18:24:59;100635.16;;;6.34;62.70
53514;BME280;39768;54.148;12.174;2024-02-21T18:29:01;100633.69;;;7.23;55.86
53514;BME280;39768;54.148;12.174;2024-02-21T18:33:04;100621.13;;;7.02;56.47
53514;BME280;39768;54.148;12.174;2024-02-21T18:37:09;100600.34;;;6.85;57.90
53514;BME280;39768;54.148;12.174;2024-02-21T18:41:11;100592.25;;;8.19;51.76
53514;BME280;39768;54.148;12.174;2024-02-21T18:45:13;100599.56;;;7.28;53.22
53514;BME280;39768;54.148;12.174;2024-02-21T18:49:17;100592.91;;;5.94;60.44
53514;BME280;39768;54.148;12.174;2024-02-21T18:53:20;100605.16;;;6.75;58.06
53514;BME280;39768;54.148;12.174;2024-02-21T18:57:22;100594.78;;;5.90;62.48
53514;BME280;39768;54.148;12.174;2024-02-21T19:01:43;100592.16;;;5.62;63.71
53514;BME280;39768;54.148;12.174;2024-02-21T19:05:46;100582.16;;;5.69;64.50
53514;BME280;39768;54.148;12.174;2024-02-21T19:09:48;100583.47;;;6.33;60.68
53514;BME280;39768;54.148;12.174;2024-02-21T19:13:51;100570.94;;;5.84;60.10
53514;BME280;39768;54.148;12.174;2024-02-21T19:17:53;100573.97;;;6.74;59.97
53514;BME280;39768;54.148;12.174;2024-02-21T19:21:55;100552.72;;;6.22;59.72
53514;BME280;39768;54.148;12.174;2024-02-21T19:25:57;100545.13;;;6.09;58.99
53514;BME280;39768;54.148;12.174;2024-02-21T19:29:59;100524.78;;;6.29;59.90
53514;BME280;39768;54.148;12.174;2024-02-21T19:34:01;100519.91;;;6.16;59.14
53514;BME280;39768;54.148;12.174;2024-02-21T19:38:03;100501.47;;;5.03;63.13
53514;BME280;39768;54.148;12.174;2024-02-21T19:42:06;100509.41;;;6.83;55.75
53514;BME280;39768;54.148;12.174;2024-02-21T19:46:10;100504.38;;;6.28;58.31
53514;BME280;39768;54.148;12.174;2024-02-21T19:50:13;100506.03;;;6.30;55.17
53514;BME280;39768;54.148;12.174;2024-02-21T19:54:20;100488.09;;;5.84;58.54
53514;BME280;39768;54.148;12.174;2024-02-21T19:58:27;100493.34;;;6.12;59.12
53514;BME280;39768;54.148;12.174;2024-02-21T20:02:30;100482.75;;;5.05;61.94
53514;BME280;39768;54.148;12.174;2024-02-21T20:06:32;100451.16;;;5.45;62.85
53514;BME280;39768;54.148;12.174;2024-02-21T20:10:34;100464.97;;;5.58;60.61
53514;BME280;39768;54.148;12.174;2024-02-21T20:14:37;100450.41;;;5.14;64.14
53514;BME280;39768;54.148;12.174;2024-02-21T20:18:39;100440.50;;;4.34;67.88
53514;BME280;39768;54.148;12.174;2024-02-21T20:22:42;100417.25;;;4.67;65.67
53514;BME280;39768;54.148;12.174;2024-02-21T20:26:45;100427.13;;;5.19;62.18
53514;BME280;39768;54.148;12.174;2024-02-21T20:30:48;100419.63;;;6.05;56.82
53514;BME280;39768;54.148;12.174;2024-02-21T20:34:50;100405.75;;;5.19;61.12
53514;BME280;39768;54.148;12.174;2024-02-21T20:38:52;100410.38;;;5.40;61.66
53514;BME280;39768;54.148;12.174;2024-02-21T20:42:54;100400.16;;;5.00;63.06
53514;BME280;39768;54.148;12.174;2024-02-21T20:46:56;100403.41;;;5.86;61.16
53514;BME280;39768;54.148;12.174;2024-02-21T20:50:58;100390.25;;;5.04;62.99
53514;BME280;39768;54.148;12.174;2024-02-21T20:55:00;100389.13;;;6.10;59.41
53514;BME280;39768;54.148;12.174;2024-02-21T20:59:03;100380.00;;;5.93;59.67
53514;BME280;39768;54.148;12.174;2024-02-21T21:03:05;100376.91;;;4.77;61.95
53514;BME280;39768;54.148;12.174;2024-02-21T21:07:26;100372.69;;;5.98;58.33
53514;BME280;39768;54.148;12.174;2024-02-21T21:11:50;100361.22;;;5.46;58.96
53514;BME280;39768;54.148;12.174;2024-02-21T21:16:15;100354.41;;;5.11;60.17